Abingdon, Maryland
Current Conditions -  °F | °C
As of 8:58 AM on Thursday 30 Oct 2014 (Local Time) from KAPG Reporting Station
Broken Clouds Broken Clouds  
Wind Chill: 48°   Ceiling: 5000
Heat Index: 48°   Visibility: 7mi
Dew Point: 43°   Wind: 0mph
Humidity: 82%   Direction: NA
Pressure: 30.03"   Gusts: NA
Location:  39.46°N, 76.28°W
Report Text: KAPG 301258Z 00000KT 7SM BKN050 09/06 A3003
Loading
Personal Weather Stations






























Interactive Weather Map
Tropical Storm Tracking
New forecast layout! Learn more

10-Day Weather Forecast

Advertisements
Track Severe Weather on mobile